createdAt,value
2018-09-12T00:00:57.891Z,77.00
2018-09-12T00:03:25.655Z,77.70
2018-09-12T00:05:53.832Z,78.90
2018-09-12T00:08:21.696Z,77.50
2018-09-12T00:10:49.686Z,77.90
2018-09-12T00:13:17.607Z,78.50
2018-09-12T00:15:45.529Z,79.00
2018-09-12T00:18:18.049Z,79.30
2018-09-12T00:20:45.992Z,78.90
2018-09-12T00:23:14.518Z,79.90
2018-09-12T00:25:42.990Z,80.00
2018-09-12T00:28:10.645Z,80.30
2018-09-12T00:30:38.617Z,81.60
2018-09-12T00:33:06.984Z,81.30
2018-09-12T00:35:34.813Z,80.50
2018-09-12T00:38:02.501Z,80.50
2018-09-12T00:40:30.253Z,80.40
2018-09-12T00:42:58.251Z,79.90
2018-09-12T00:45:26.117Z,79.90
2018-09-12T00:47:54.390Z,80.80
2018-09-12T00:50:22.572Z,81.40
2018-09-12T00:52:51.521Z,82.40
2018-09-12T00:55:19.302Z,83.70
2018-09-12T00:57:47.507Z,83.40
2018-09-12T01:00:20.167Z,82.20
2018-09-12T01:02:47.951Z,82.30
2018-09-12T01:05:16.128Z,82.70
2018-09-12T01:07:45.136Z,82.00
2018-09-12T01:10:17.440Z,82.00
2018-09-12T01:12:45.337Z,82.50
2018-09-12T01:15:13.071Z,83.30
2018-09-12T01:17:41.262Z,83.50
2018-09-12T01:20:09.045Z,83.20
2018-09-12T01:22:37.370Z,83.00
2018-09-12T01:25:05.354Z,83.50
2018-09-12T01:27:33.185Z,84.60
2018-09-12T01:30:00.931Z,84.50
2018-09-12T01:32:28.767Z,84.40
2018-09-12T01:34:57.379Z,85.20
2018-09-12T01:37:25.452Z,84.60
2018-09-12T01:39:53.298Z,84.40
2018-09-12T01:42:21.835Z,86.10
2018-09-12T01:44:49.560Z,86.20
2018-09-12T01:47:18.039Z,86.00
2018-09-12T01:49:46.007Z,85.40
2018-09-12T01:52:13.746Z,86.00
2018-09-12T01:54:41.467Z,86.70
2018-09-12T01:57:10.363Z,87.00
2018-09-12T01:59:38.747Z,87.90
2018-09-12T02:02:06.485Z,86.80
2018-09-12T02:04:34.552Z,86.50
2018-09-12T02:07:02.690Z,85.60
2018-09-12T02:09:30.372Z,86.10
2018-09-12T02:11:58.255Z,87.40
2018-09-12T02:14:25.949Z,89.00
2018-09-12T02:16:53.728Z,89.90
2018-09-12T02:19:21.721Z,90.10
2018-09-12T02:21:49.588Z,89.10
2018-09-12T02:24:17.773Z,89.40
2018-09-12T02:26:45.661Z,89.90
2018-09-12T02:29:13.999Z,89.50
2018-09-12T02:31:41.800Z,89.00
2018-09-12T02:34:10.209Z,89.00
2018-09-12T02:36:37.973Z,89.60
2018-09-12T02:39:08.165Z,88.50
2018-09-12T02:41:35.889Z,88.30
2018-09-12T02:44:04.058Z,88.60
2018-09-12T02:46:31.932Z,88.60
2018-09-12T02:48:59.623Z,88.10
2018-09-12T02:51:27.463Z,87.90
2018-09-12T02:53:55.653Z,88.70
2018-09-12T02:56:24.009Z,90.00
2018-09-12T02:58:51.731Z,90.00
2018-09-12T03:01:19.440Z,89.60
2018-09-12T03:03:47.466Z,90.10
2018-09-12T03:06:15.953Z,90.50
2018-09-12T03:08:47.485Z,90.80
2018-09-12T03:11:15.226Z,90.70
2018-09-12T03:13:42.989Z,89.90
2018-09-12T03:16:10.762Z,89.40
2018-09-12T03:30:38.074Z,88.90
2018-09-12T03:42:14.107Z,90.20
2018-09-12T03:44:42.715Z,90.50
2018-09-12T03:47:11.273Z,91.10
2018-09-12T03:49:39.766Z,90.60
2018-09-12T03:52:07.969Z,90.50
2018-09-12T03:54:35.871Z,90.70
2018-09-12T03:57:03.678Z,90.70
2018-09-12T03:59:31.921Z,90.30
2018-09-12T04:02:07.146Z,90.50
2018-09-12T04:04:34.955Z,90.50
2018-09-12T04:07:02.635Z,90.40
2018-09-12T04:09:31.332Z,90.20
2018-09-12T04:11:59.136Z,90.40
2018-09-12T04:14:26.825Z,90.90
2018-09-12T04:16:54.630Z,90.60
2018-09-12T04:19:22.386Z,90.90
2018-09-12T04:21:50.226Z,90.70
2018-09-12T04:24:18.149Z,90.40
2018-09-12T04:26:46.474Z,90.40
2018-09-12T04:29:15.252Z,90.30
2018-09-12T04:31:43.495Z,90.70
2018-09-12T04:34:13.008Z,90.40
2018-09-12T04:36:42.258Z,90.40
2018-09-12T04:39:11.910Z,90.50
2018-09-12T04:41:39.795Z,90.60
2018-09-12T04:44:08.292Z,90.30
2018-09-12T04:46:36.245Z,90.30
2018-09-12T04:49:04.182Z,90.00
2018-09-12T04:51:31.860Z,90.40
2018-09-12T04:54:00.249Z,90.60
2018-09-12T04:56:28.494Z,90.60
2018-09-12T04:58:56.342Z,90.90
2018-09-12T05:01:24.113Z,91.20
2018-09-12T05:03:52.353Z,91.00
2018-09-12T05:06:20.045Z,90.90
2018-09-12T05:08:47.904Z,91.10
2018-09-12T05:11:15.616Z,91.30
2018-09-12T05:13:43.473Z,91.50
2018-09-12T05:16:11.271Z,91.80
2018-09-12T05:18:41.281Z,91.90
2018-09-12T05:21:09.646Z,91.60
2018-09-12T05:23:37.232Z,91.50
2018-09-12T05:26:04.932Z,91.60
2018-09-12T05:28:32.476Z,91.20
2018-09-12T05:31:00.497Z,91.10
2018-09-12T05:33:28.076Z,91.50
2018-09-12T05:35:56.218Z,91.40
2018-09-12T05:38:23.869Z,91.70
2018-09-12T05:40:51.847Z,91.70
2018-09-12T05:43:19.932Z,91.30
2018-09-12T05:45:47.693Z,91.20
2018-09-12T05:48:15.536Z,91.20
2018-09-12T05:50:44.124Z,91.00
2018-09-12T05:53:12.601Z,91.00
2018-09-12T05:55:40.457Z,91.20
2018-09-12T05:58:08.151Z,91.50
2018-09-12T06:00:35.952Z,91.40
2018-09-12T06:03:04.583Z,91.10
2018-09-12T06:05:32.381Z,90.80
2018-09-12T06:08:00.337Z,90.40
2018-09-12T06:10:29.013Z,90.60
2018-09-12T06:12:56.869Z,90.60
2018-09-12T06:15:24.747Z,90.30
2018-09-12T06:17:53.042Z,90.40
2018-09-12T06:20:26.073Z,90.30
2018-09-12T06:22:54.160Z,89.90
2018-09-12T06:25:22.493Z,89.80
2018-09-12T06:27:50.761Z,89.90
2018-09-12T06:30:19.349Z,89.10
2018-09-12T06:32:52.459Z,88.60
2018-09-12T06:35:25.816Z,88.10
2018-09-12T06:37:54.020Z,86.90
2018-09-12T06:40:22.130Z,84.90
2018-09-12T06:42:50.500Z,84.90
2018-09-12T06:45:18.575Z,83.50
2018-09-12T06:47:46.502Z,80.90
2018-09-12T06:50:15.373Z,79.50
2018-09-12T06:52:44.679Z,77.60
2018-09-12T06:55:20.017Z,76.50
2018-09-12T06:57:57.409Z,74.10
2018-09-12T07:00:27.700Z,73.60
2018-09-12T07:02:55.464Z,71.60
2018-09-12T07:05:23.428Z,69.20
2018-09-12T07:07:51.154Z,68.00
2018-09-12T07:10:18.918Z,69.20
2018-09-12T07:12:47.232Z,68.90
2018-09-12T07:15:15.394Z,67.30
2018-09-12T07:17:43.328Z,66.10
2018-09-12T07:20:12.393Z,65.60
2018-09-12T07:22:42.853Z,63.90
2018-09-12T07:25:10.971Z,62.50
2018-09-12T07:27:38.828Z,64.00
2018-09-12T07:30:12.259Z,62.70
2018-09-12T07:32:40.292Z,61.40
2018-09-12T07:35:08.357Z,61.20
2018-09-12T07:37:37.403Z,61.00
2018-09-12T07:40:05.719Z,59.50
2018-09-12T07:42:33.397Z,56.90
2018-09-12T07:45:01.052Z,56.80
2018-09-12T07:47:28.963Z,57.40
2018-09-12T07:49:56.582Z,57.30
2018-09-12T07:52:24.553Z,55.20
2018-09-12T07:54:53.031Z,53.20
2018-09-12T07:57:21.393Z,54.90
2018-09-12T07:59:49.264Z,54.50
2018-09-12T08:02:18.088Z,53.40
2018-09-12T08:04:45.783Z,54.10
2018-09-12T08:07:13.655Z,52.30
2018-09-12T08:09:41.402Z,52.00
2018-09-12T08:12:09.189Z,51.70
2018-09-12T08:14:36.935Z,51.20
2018-09-12T08:17:04.747Z,52.00
2018-09-12T08:19:33.712Z,53.20
2018-09-12T08:22:01.486Z,51.40
2018-09-12T08:24:29.640Z,50.40
2018-09-12T08:26:57.406Z,50.10
2018-09-12T08:29:25.348Z,49.50
2018-09-12T08:31:52.980Z,50.00
2018-09-12T08:34:20.629Z,49.90
2018-09-12T08:36:48.344Z,48.50
2018-09-12T08:39:16.121Z,49.50
2018-09-12T08:41:43.800Z,47.60
2018-09-12T08:44:11.393Z,47.90
2018-09-12T08:46:39.052Z,47.00
2018-09-12T08:49:06.661Z,48.40
2018-09-12T08:51:34.380Z,46.40
2018-09-12T08:54:02.201Z,46.80
2018-09-12T08:56:30.154Z,46.60
2018-09-12T08:58:58.944Z,46.60
2018-09-12T09:01:27.199Z,46.70
2018-09-12T09:03:54.795Z,49.50
2018-09-12T09:06:23.149Z,47.20
2018-09-12T09:08:51.508Z,44.80
2018-09-12T09:11:19.227Z,44.80
2018-09-12T09:13:46.977Z,45.80
2018-09-12T09:16:15.292Z,44.80
2018-09-12T09:18:42.917Z,46.20
2018-09-12T09:21:10.717Z,46.20
2018-09-12T09:23:38.660Z,45.20
2018-09-12T09:26:06.448Z,44.10
2018-09-12T09:28:34.483Z,44.60
2018-09-12T09:31:02.522Z,44.60
2018-09-12T09:33:31.378Z,44.70
2018-09-12T09:35:59.204Z,44.50
2018-09-12T09:38:27.010Z,42.80
2018-09-12T09:40:55.527Z,43.00
2018-09-12T09:43:24.009Z,43.40
2018-09-12T09:45:51.783Z,43.00
2018-09-12T09:48:19.604Z,44.00
2018-09-12T09:50:47.374Z,41.50
2018-09-12T09:53:15.784Z,41.50
2018-09-12T09:55:43.444Z,41.60
2018-09-12T09:58:19.872Z,40.90
2018-09-12T10:00:53.250Z,41.40
2018-09-12T10:03:26.564Z,41.40
2018-09-12T10:05:59.999Z,41.40
2018-09-12T10:08:28.064Z,40.50
2018-09-12T10:10:56.156Z,41.10
2018-09-12T10:13:25.030Z,39.10
2018-09-12T10:15:52.686Z,39.30
2018-09-12T10:18:20.397Z,38.50
2018-09-12T10:20:48.215Z,38.80
2018-09-12T10:23:16.186Z,37.80
2018-09-12T10:25:45.647Z,37.60
2018-09-12T10:28:14.121Z,36.80
2018-09-12T10:30:42.029Z,38.00
2018-09-12T10:33:09.802Z,37.10
2018-09-12T10:35:37.574Z,35.70
2018-09-12T10:38:05.824Z,35.70
2018-09-12T10:40:33.680Z,36.00
2018-09-12T10:43:01.501Z,34.10
2018-09-12T10:45:30.704Z,35.70
2018-09-12T10:47:58.389Z,35.60
2018-09-12T10:50:26.036Z,35.60
2018-09-12T10:52:53.792Z,34.80
2018-09-12T10:55:21.695Z,34.10
2018-09-12T10:57:49.413Z,34.00
2018-09-12T11:00:17.113Z,32.10
2018-09-12T11:02:44.822Z,32.20
2018-09-12T11:05:12.796Z,30.80
2018-09-12T11:07:40.590Z,30.20
2018-09-12T11:10:08.518Z,30.20
2018-09-12T11:12:36.984Z,29.80
2018-09-12T11:15:05.115Z,31.30
2018-09-12T11:17:33.601Z,29.90
2018-09-12T11:20:01.528Z,30.20
2018-09-12T11:22:29.416Z,29.90
2018-09-12T11:24:57.390Z,29.90
2018-09-12T11:27:25.114Z,29.70
2018-09-12T11:29:52.787Z,29.90
2018-09-12T11:32:20.566Z,29.60
2018-09-12T11:34:48.552Z,30.20
2018-09-12T11:37:16.248Z,29.30
2018-09-12T11:39:44.061Z,29.90
2018-09-12T11:42:11.808Z,30.00
2018-09-12T11:44:39.772Z,30.10
2018-09-12T11:47:07.439Z,28.80
2018-09-12T11:49:35.892Z,28.70
2018-09-12T11:52:03.700Z,30.00
2018-09-12T11:54:32.999Z,29.00
2018-09-12T11:57:01.116Z,29.40
2018-09-12T11:59:28.833Z,28.90
2018-09-12T12:01:56.686Z,28.90
2018-09-12T12:04:24.974Z,28.60
2018-09-12T12:06:53.133Z,29.10
2018-09-12T12:09:21.015Z,28.80
2018-09-12T12:11:48.801Z,29.20
2018-09-12T12:14:16.376Z,28.60
2018-09-12T12:16:44.294Z,29.50
2018-09-12T12:19:12.140Z,29.20
2018-09-12T12:21:40.041Z,29.10
2018-09-12T12:24:07.988Z,29.00
2018-09-12T12:26:35.889Z,29.20
2018-09-12T12:29:03.753Z,28.90
2018-09-12T12:31:31.724Z,30.00
2018-09-12T12:33:59.475Z,28.90
2018-09-12T12:36:28.672Z,28.90
2018-09-12T12:38:56.661Z,29.20
2018-09-12T12:41:24.620Z,28.90
2018-09-12T12:43:53.190Z,28.40
2018-09-12T12:46:21.387Z,28.50
2018-09-12T12:48:49.105Z,28.70
2018-09-12T12:51:17.536Z,28.30
2018-09-12T12:53:45.483Z,28.40
2018-09-12T12:56:14.110Z,28.20
2018-09-12T12:58:42.242Z,28.10
2018-09-12T13:01:10.103Z,27.80
2018-09-12T13:03:38.668Z,28.60
2018-09-12T13:06:07.143Z,28.20
2018-09-12T13:08:34.876Z,27.90
2018-09-12T13:11:02.770Z,27.50
2018-09-12T13:13:30.528Z,27.70
2018-09-12T13:15:58.741Z,27.70
2018-09-12T13:18:26.628Z,27.30
2018-09-12T13:20:54.573Z,27.10
2018-09-12T13:23:23.057Z,27.10
2018-09-12T13:25:50.914Z,27.00
2018-09-12T13:28:19.350Z,26.90
2018-09-12T13:30:47.229Z,26.80
2018-09-12T13:33:15.091Z,27.50
2018-09-12T13:35:43.725Z,26.80
2018-09-12T13:38:12.500Z,26.90
2018-09-12T13:40:40.577Z,26.00
2018-09-12T13:43:08.538Z,26.50
2018-09-12T13:45:36.303Z,25.50
2018-09-12T13:48:04.268Z,26.30
2018-09-12T13:50:32.008Z,25.60
2018-09-12T13:52:59.612Z,26.00
2018-09-12T13:55:27.549Z,26.10
2018-09-12T13:57:55.192Z,25.90
2018-09-12T14:00:22.996Z,25.40
2018-09-12T14:02:50.906Z,25.90
2018-09-12T14:05:18.736Z,25.70
2018-09-12T14:07:47.075Z,25.60
2018-09-12T14:10:14.735Z,25.70
2018-09-12T14:12:42.535Z,25.30
2018-09-12T14:15:10.502Z,26.40
2018-09-12T14:17:38.203Z,25.90
2018-09-12T14:20:06.352Z,26.20
2018-09-12T14:22:34.484Z,25.90
2018-09-12T14:25:03.477Z,25.70
2018-09-12T14:27:31.250Z,26.00
2018-09-12T14:29:58.848Z,25.30
2018-09-12T14:32:26.473Z,25.30
2018-09-12T14:34:54.257Z,25.20
2018-09-12T14:37:22.184Z,25.20
2018-09-12T14:39:51.029Z,25.80
2018-09-12T14:42:19.615Z,25.30
2018-09-12T14:44:49.518Z,25.20
2018-09-12T14:47:18.201Z,25.10
2018-09-12T14:49:46.125Z,25.10
2018-09-12T14:52:14.949Z,25.80
2018-09-12T14:54:42.982Z,25.80
2018-09-12T14:57:10.970Z,25.60
2018-09-12T14:59:44.139Z,26.20
2018-09-12T15:02:11.999Z,26.10
2018-09-12T15:04:39.967Z,26.40
2018-09-12T15:07:09.016Z,26.20
2018-09-12T15:09:36.975Z,26.00
2018-09-12T15:12:04.980Z,26.20
2018-09-12T15:14:33.316Z,26.50
2018-09-12T15:17:01.456Z,26.50
2018-09-12T15:19:29.517Z,26.10
2018-09-12T15:21:57.391Z,26.70
2018-09-12T15:24:25.452Z,26.60
2018-09-12T15:26:54.538Z,26.70
2018-09-12T15:29:22.358Z,26.80
2018-09-12T15:31:50.428Z,27.30
2018-09-12T15:34:18.461Z,27.10
2018-09-12T15:36:46.130Z,27.50
2018-09-12T15:39:14.443Z,27.50
2018-09-12T15:41:42.750Z,27.30
2018-09-12T15:44:10.877Z,27.00
2018-09-12T15:46:38.579Z,27.50
2018-09-12T15:49:06.314Z,27.50
2018-09-12T15:51:34.202Z,27.30
2018-09-12T15:54:02.376Z,27.50
2018-09-12T15:56:30.431Z,28.20
2018-09-12T15:58:59.621Z,27.40
2018-09-12T16:01:27.367Z,27.20
2018-09-12T16:03:55.290Z,28.10
2018-09-12T16:06:25.389Z,28.70
2018-09-12T16:08:53.181Z,28.50
2018-09-12T16:11:21.154Z,29.70
2018-09-12T16:13:50.236Z,29.60
2018-09-12T16:16:19.514Z,29.60
2018-09-12T16:18:47.782Z,29.50
2018-09-12T16:21:15.801Z,29.90
2018-09-12T16:23:43.546Z,29.50
2018-09-12T16:26:11.373Z,29.50
2018-09-12T16:28:39.564Z,29.50
2018-09-12T16:31:07.404Z,29.60
2018-09-12T16:33:35.089Z,29.70
2018-09-12T16:36:03.148Z,29.80
2018-09-12T16:38:31.173Z,29.90
2018-09-12T16:41:00.014Z,29.30
2018-09-12T16:43:29.064Z,29.90
2018-09-12T16:45:57.565Z,29.90
2018-09-12T16:48:26.519Z,29.90
2018-09-12T16:50:54.695Z,29.70
2018-09-12T16:53:23.276Z,29.70
2018-09-12T16:55:51.011Z,29.70
2018-09-12T16:58:18.934Z,29.60
2018-09-12T17:00:47.283Z,30.00
2018-09-12T17:03:15.207Z,30.20
2018-09-12T17:05:43.716Z,31.70
2018-09-12T17:08:11.567Z,32.00
2018-09-12T17:10:39.503Z,32.30
2018-09-12T17:13:07.721Z,32.50
2018-09-12T17:15:35.438Z,32.90
2018-09-12T17:18:03.399Z,34.40
2018-09-12T17:20:31.430Z,33.80
2018-09-12T17:22:59.724Z,34.10
2018-09-12T17:25:28.084Z,34.30
2018-09-12T17:27:55.950Z,34.50
2018-09-12T17:30:23.805Z,34.90
2018-09-12T17:32:51.706Z,35.30
2018-09-12T17:35:19.516Z,35.30
2018-09-12T17:37:47.428Z,37.60
2018-09-12T17:40:15.391Z,38.40
2018-09-12T17:42:43.322Z,39.00
2018-09-12T17:45:11.831Z,40.10
2018-09-12T17:47:39.514Z,41.50
2018-09-12T17:50:08.456Z,41.30
2018-09-12T17:52:36.352Z,42.00
2018-09-12T17:55:04.545Z,42.60
2018-09-12T17:57:32.516Z,43.90
2018-09-12T18:00:00.864Z,43.20
2018-09-12T18:02:28.937Z,44.80
2018-09-12T18:04:56.996Z,43.60
2018-09-12T18:07:25.195Z,44.00
2018-09-12T18:09:53.054Z,42.80
2018-09-12T18:12:21.584Z,44.20
2018-09-12T18:14:49.796Z,44.80
2018-09-12T18:17:17.761Z,45.70
2018-09-12T18:19:46.066Z,46.40
2018-09-12T18:22:14.882Z,45.70
2018-09-12T18:24:45.019Z,45.70
2018-09-12T18:27:12.931Z,47.10
2018-09-12T18:29:40.940Z,46.20
2018-09-12T18:32:09.181Z,47.60
2018-09-12T18:34:37.497Z,46.60
2018-09-12T18:37:05.748Z,46.70
2018-09-12T18:39:33.795Z,47.10
2018-09-12T18:42:01.661Z,46.70
2018-09-12T18:44:30.462Z,46.00
2018-09-12T18:46:58.521Z,45.20
2018-09-12T18:49:26.682Z,46.10
2018-09-12T18:51:54.865Z,46.40
2018-09-12T18:54:22.674Z,46.50
2018-09-12T18:56:51.017Z,46.40
2018-09-12T18:59:18.874Z,47.00
2018-09-12T19:01:46.818Z,47.10
2018-09-12T19:04:14.642Z,47.20
2018-09-12T19:06:42.938Z,48.10
2018-09-12T19:09:12.463Z,48.80
2018-09-12T19:11:40.870Z,48.80
2018-09-12T19:14:09.115Z,50.30
2018-09-12T19:16:37.260Z,49.60
2018-09-12T19:19:05.054Z,50.50
2018-09-12T19:21:33.116Z,50.30
2018-09-12T19:24:01.221Z,50.50
2018-09-12T19:26:29.330Z,50.90
2018-09-12T19:28:57.125Z,51.40
2018-09-12T19:31:25.337Z,51.10
2018-09-12T19:33:53.159Z,52.00
2018-09-12T19:36:22.628Z,51.50
2018-09-12T19:38:55.559Z,52.00
2018-09-12T19:41:23.548Z,51.90
2018-09-12T19:43:51.748Z,52.00
2018-09-12T19:46:19.842Z,51.90
2018-09-12T19:48:47.731Z,51.90
2018-09-12T19:51:19.584Z,52.50
2018-09-12T19:53:47.324Z,53.70
2018-09-12T19:56:15.515Z,54.10
2018-09-12T19:58:44.128Z,54.00
2018-09-12T20:01:12.427Z,53.70
2018-09-12T20:03:40.580Z,53.20
2018-09-12T20:06:09.321Z,53.80
2018-09-12T20:08:37.639Z,53.90
2018-09-12T20:11:05.610Z,54.10
2018-09-12T20:13:35.315Z,53.70
2018-09-12T20:16:03.699Z,54.40
2018-09-12T20:18:31.761Z,54.80
2018-09-12T20:21:00.133Z,54.60
2018-09-12T20:23:28.856Z,54.30
2018-09-12T20:25:56.790Z,54.00
2018-09-12T20:28:24.608Z,54.00
2018-09-12T20:30:52.566Z,54.60
2018-09-12T20:33:20.447Z,55.30
2018-09-12T20:35:48.218Z,55.10
2018-09-12T20:38:16.870Z,56.10
2018-09-12T20:40:46.033Z,57.30
2018-09-12T20:43:16.405Z,58.70
2018-09-12T20:45:49.987Z,57.50
2018-09-12T20:48:19.068Z,58.00
2018-09-12T20:50:46.945Z,57.00
2018-09-12T20:53:14.786Z,58.10
2018-09-12T20:55:42.654Z,56.20
2018-09-12T20:58:10.418Z,56.50
2018-09-12T21:00:38.810Z,53.60
2018-09-12T21:03:07.213Z,52.20
2018-09-12T21:05:35.385Z,51.80
2018-09-12T21:08:03.385Z,51.80
2018-09-12T21:10:31.678Z,51.80
2018-09-12T21:12:59.608Z,51.90
2018-09-12T21:15:27.456Z,51.90
2018-09-12T21:17:55.345Z,50.90
2018-09-12T21:20:23.471Z,50.60
2018-09-12T21:22:51.606Z,50.30
2018-09-12T21:25:20.057Z,50.10
2018-09-12T21:27:47.930Z,50.20
2018-09-12T21:30:15.655Z,50.10
2018-09-12T21:32:43.985Z,50.00
2018-09-12T21:35:11.711Z,50.40
2018-09-12T21:37:40.048Z,50.00
2018-09-12T21:40:08.917Z,50.20
2018-09-12T21:42:37.203Z,50.80
2018-09-12T21:45:04.953Z,50.60
2018-09-12T21:47:32.691Z,50.70
2018-09-12T21:50:01.002Z,51.10
2018-09-12T21:52:28.926Z,51.30
2018-09-12T21:54:56.732Z,51.90
2018-09-12T21:57:25.372Z,51.90
2018-09-12T21:59:53.280Z,51.80
2018-09-12T22:02:23.312Z,51.70
2018-09-12T22:04:53.328Z,51.90
2018-09-12T22:07:21.166Z,51.70
2018-09-12T22:09:51.038Z,52.40
2018-09-12T22:12:18.848Z,52.90
2018-09-12T22:14:47.640Z,53.20
2018-09-12T22:17:15.477Z,53.70
2018-09-12T22:19:43.947Z,54.00
2018-09-12T22:22:12.453Z,53.90
2018-09-12T22:24:47.049Z,53.80
2018-09-12T22:27:14.786Z,54.10
2018-09-12T22:29:42.724Z,54.30
2018-09-12T22:32:11.194Z,54.50
2018-09-12T22:34:39.086Z,54.70
2018-09-12T22:37:06.980Z,54.90
2018-09-12T22:39:35.181Z,54.60
2018-09-12T22:42:04.577Z,55.60
2018-09-12T22:44:38.173Z,55.50
2018-09-12T22:47:07.274Z,55.90
2018-09-12T22:49:35.288Z,56.20
2018-09-12T22:52:03.432Z,56.50
2018-09-12T22:54:31.276Z,57.00
2018-09-12T22:57:00.301Z,57.10
2018-09-12T22:59:29.037Z,57.10
2018-09-12T23:01:56.729Z,57.10
2018-09-12T23:04:24.811Z,57.00
2018-09-12T23:06:52.897Z,57.40
2018-09-12T23:09:20.848Z,57.70
2018-09-12T23:11:49.239Z,58.00
2018-09-12T23:14:17.024Z,58.20
2018-09-12T23:16:45.038Z,58.20
2018-09-12T23:19:12.716Z,58.60
2018-09-12T23:21:40.774Z,58.60
2018-09-12T23:24:08.881Z,59.00
2018-09-12T23:26:37.055Z,59.30
2018-09-12T23:29:07.882Z,60.30
2018-09-12T23:31:36.068Z,60.30
2018-09-12T23:34:04.484Z,60.70
2018-09-12T23:36:32.694Z,61.10
2018-09-12T23:39:00.795Z,61.60
2018-09-12T23:41:29.352Z,61.90
2018-09-12T23:43:57.180Z,62.20
2018-09-12T23:46:26.169Z,62.40
2018-09-12T23:48:54.107Z,62.30
2018-09-12T23:51:21.838Z,62.40
2018-09-12T23:53:49.977Z,63.20
2018-09-12T23:56:18.299Z,63.80
2018-09-12T23:58:46.057Z,64.20
